createdAt,value
2023-03-24T00:00:13.630Z,4.32
2023-03-24T00:03:02.679Z,4.63
2023-03-24T00:05:30.901Z,4.45
2023-03-24T00:08:02.258Z,5.50
2023-03-24T00:10:34.588Z,4.70
2023-03-24T00:13:02.386Z,4.50
2023-03-24T00:15:31.328Z,4.53
2023-03-24T00:17:59.152Z,4.53
2023-03-24T00:20:27.105Z,4.50
2023-03-24T00:22:59.482Z,4.05
2023-03-24T00:25:36.328Z,4.47
2023-03-24T00:28:07.201Z,4.00
2023-03-24T00:30:35.761Z,4.00
2023-03-24T00:33:04.226Z,4.32
2023-03-24T00:35:32.364Z,4.15
2023-03-24T00:38:00.579Z,4.18
2023-03-24T00:40:28.963Z,4.30
2023-03-24T00:42:56.283Z,4.63
2023-03-24T00:45:24.095Z,3.85
2023-03-24T00:47:54.673Z,4.18
2023-03-24T00:50:26.655Z,3.72
2023-03-24T00:52:55.344Z,4.10
2023-03-24T00:55:23.331Z,4.60
2023-03-24T00:57:51.463Z,4.30
2023-03-24T01:00:21.171Z,4.40
2023-03-24T01:02:53.710Z,4.55
2023-03-24T01:07:52.019Z,4.03
2023-03-24T01:10:21.742Z,4.63
2023-03-24T01:12:49.218Z,4.60
2023-03-24T01:15:18.269Z,5.35
2023-03-24T01:17:47.236Z,5.50
2023-03-24T01:20:15.877Z,5.35
2023-03-24T01:22:44.794Z,5.70
2023-03-24T01:25:16.901Z,5.03
2023-03-24T01:27:44.759Z,5.13
2023-03-24T01:30:13.834Z,5.13
2023-03-24T01:32:41.799Z,5.65
2023-03-24T01:35:09.776Z,5.32
2023-03-24T01:37:37.253Z,6.22
2023-03-24T01:40:11.051Z,4.72
2023-03-24T01:42:39.514Z,4.55
2023-03-24T01:45:26.210Z,4.40
2023-03-24T01:47:53.665Z,4.70
2023-03-24T01:50:21.415Z,4.78
2023-03-24T01:52:48.814Z,5.38
2023-03-24T01:55:19.747Z,5.05
2023-03-24T01:57:50.320Z,5.55
2023-03-24T02:00:19.200Z,5.78
2023-03-24T02:02:49.524Z,6.97
2023-03-24T02:05:18.001Z,5.70
2023-03-24T02:07:52.267Z,5.35
2023-03-24T02:10:21.865Z,6.25
2023-03-24T02:12:49.282Z,6.18
2023-03-24T02:15:19.117Z,6.53
2023-03-24T02:18:19.060Z,6.30
2023-03-24T02:20:56.286Z,6.45
2023-03-24T02:23:50.199Z,6.22
2023-03-24T02:26:39.574Z,5.93
2023-03-24T02:29:26.052Z,5.57
2023-03-24T02:32:11.916Z,5.88
2023-03-24T02:34:51.518Z,6.10
2023-03-24T02:37:45.786Z,5.72
2023-03-24T02:40:31.080Z,6.28
2023-03-24T02:42:58.681Z,6.25
2023-03-24T02:45:29.046Z,5.90
2023-03-24T02:48:02.876Z,6.78
2023-03-24T02:53:19.400Z,6.20
2023-03-24T02:56:06.001Z,6.43
2023-03-24T02:58:39.652Z,7.80
2023-03-24T03:01:20.447Z,6.72
2023-03-24T03:03:53.311Z,7.07
2023-03-24T03:06:28.788Z,7.10
2023-03-24T03:09:01.102Z,7.03
2023-03-24T03:11:28.529Z,7.50
2023-03-24T03:14:16.668Z,6.88
2023-03-24T03:16:53.844Z,8.02
2023-03-24T03:19:25.805Z,7.72
2023-03-24T03:21:54.426Z,8.52
2023-03-24T03:24:31.994Z,7.68
2023-03-24T03:27:08.363Z,8.18
2023-03-24T03:29:39.056Z,7.97
2023-03-24T03:32:08.126Z,7.88
2023-03-24T03:34:38.939Z,7.63
2023-03-24T03:37:06.297Z,6.97
2023-03-24T03:39:38.519Z,6.75
2023-03-24T03:42:06.948Z,7.75
2023-03-24T03:44:34.741Z,7.40
2023-03-24T03:47:02.225Z,7.82
2023-03-24T03:49:29.961Z,6.72
2023-03-24T03:51:57.410Z,7.55
2023-03-24T03:54:26.719Z,6.90
2023-03-24T03:56:54.944Z,8.23
2023-03-24T03:59:36.551Z,7.85
2023-03-24T04:02:24.368Z,7.55
2023-03-24T04:05:16.327Z,7.00
2023-03-24T04:08:03.781Z,6.80
2023-03-24T04:10:37.839Z,6.80
2023-03-24T04:13:15.664Z,7.05
2023-03-24T04:15:47.336Z,6.78
2023-03-24T04:18:17.900Z,7.10
2023-03-24T04:20:48.328Z,7.85
2023-03-24T04:23:18.324Z,7.63
2023-03-24T04:25:51.013Z,7.65
2023-03-24T04:28:39.908Z,7.45
2023-03-24T04:31:23.867Z,7.25
2023-03-24T04:34:05.317Z,6.97
2023-03-24T04:36:54.396Z,6.82
2023-03-24T04:39:28.083Z,7.68
2023-03-24T04:42:02.485Z,8.23
2023-03-24T04:44:33.238Z,8.07
2023-03-24T04:47:02.710Z,7.95
2023-03-24T04:49:30.079Z,8.38
2023-03-24T04:51:57.818Z,7.32
2023-03-24T04:54:25.462Z,7.82
2023-03-24T04:56:54.212Z,7.95
2023-03-24T04:59:21.574Z,7.57
2023-03-24T05:01:52.388Z,7.55
2023-03-24T05:04:21.112Z,6.78
2023-03-24T05:06:51.959Z,7.50
2023-03-24T05:09:23.297Z,7.10
2023-03-24T05:11:51.793Z,7.20
2023-03-24T05:14:19.270Z,7.70
2023-03-24T05:16:46.977Z,7.35
2023-03-24T05:19:14.490Z,7.00
2023-03-24T05:21:42.377Z,7.45
2023-03-24T05:24:09.808Z,7.00
2023-03-24T05:26:37.507Z,6.57
2023-03-24T05:29:04.939Z,6.80
2023-03-24T05:31:32.689Z,8.00
2023-03-24T05:34:00.543Z,6.57
2023-03-24T05:36:28.192Z,6.35
2023-03-24T05:38:55.664Z,6.85
2023-03-24T05:41:22.929Z,6.32
2023-03-24T05:43:50.352Z,6.88
2023-03-24T05:46:18.083Z,5.57
2023-03-24T05:48:46.941Z,5.95
2023-03-24T05:51:14.956Z,5.40
2023-03-24T05:53:42.318Z,6.72
2023-03-24T05:56:12.210Z,6.93
2023-03-24T05:58:39.610Z,7.20
2023-03-24T06:01:10.263Z,7.00
2023-03-24T06:03:40.624Z,6.55
2023-03-24T06:06:09.635Z,6.07
2023-03-24T06:08:38.381Z,6.25
2023-03-24T06:11:06.584Z,6.10
2023-03-24T06:13:33.933Z,6.53
2023-03-24T06:16:03.681Z,5.50
2023-03-24T06:18:32.050Z,5.95
2023-03-24T06:21:00.277Z,5.88
2023-03-24T06:23:28.845Z,5.28
2023-03-24T06:25:58.356Z,5.47
2023-03-24T06:28:26.277Z,5.28
2023-03-24T06:30:56.629Z,5.35
2023-03-24T06:33:25.857Z,6.00
2023-03-24T06:35:53.602Z,5.28
2023-03-24T06:38:22.259Z,5.53
2023-03-24T06:40:50.554Z,5.47
2023-03-24T06:43:17.956Z,5.68
2023-03-24T06:45:46.507Z,5.35
2023-03-24T06:48:14.228Z,4.75
2023-03-24T06:50:42.067Z,5.82
2023-03-24T06:53:09.583Z,4.70
2023-03-24T06:55:37.315Z,6.20
2023-03-24T06:58:04.798Z,5.32
2023-03-24T07:00:32.999Z,4.13
2023-03-24T07:03:02.843Z,4.65
2023-03-24T07:05:30.550Z,4.20
2023-03-24T07:10:28.457Z,4.30
2023-03-24T07:12:56.181Z,3.67
2023-03-24T07:15:24.102Z,3.92
2023-03-24T07:17:51.849Z,3.67
2023-03-24T07:20:20.292Z,3.97
2023-03-24T07:22:47.818Z,3.42
2023-03-24T07:25:20.220Z,3.25
2023-03-24T07:27:47.390Z,3.20
2023-03-24T07:30:15.507Z,3.13
2023-03-24T07:32:43.904Z,3.42
2023-03-24T07:35:13.385Z,2.90
2023-03-24T07:37:40.928Z,3.28
2023-03-24T07:40:12.213Z,2.95
2023-03-24T07:42:40.141Z,3.00
2023-03-24T07:45:09.138Z,3.25
2023-03-24T07:47:36.815Z,2.63
2023-03-24T07:50:06.841Z,2.83
2023-03-24T07:52:34.204Z,2.75
2023-03-24T07:55:01.673Z,2.60
2023-03-24T07:57:29.076Z,2.63
2023-03-24T07:59:56.813Z,2.80
2023-03-24T08:02:24.272Z,3.40
2023-03-24T08:04:56.468Z,2.67
2023-03-24T08:07:24.517Z,2.28
2023-03-24T08:09:52.243Z,3.25
2023-03-24T08:12:20.716Z,2.88
2023-03-24T08:14:48.878Z,3.53
2023-03-24T08:17:16.344Z,2.92
2023-03-24T08:19:58.503Z,3.05
2023-03-24T08:22:28.450Z,3.20
2023-03-24T08:24:56.190Z,2.85
2023-03-24T08:27:24.103Z,2.75
2023-03-24T08:29:51.754Z,3.28
2023-03-24T08:32:18.702Z,2.72
2023-03-24T08:34:46.448Z,2.88
2023-03-24T08:37:13.894Z,2.83
2023-03-24T08:39:41.615Z,2.65
2023-03-24T08:42:09.075Z,3.05
2023-03-24T08:44:36.716Z,2.65
2023-03-24T08:47:04.371Z,2.65
2023-03-24T08:49:32.272Z,2.63
2023-03-24T08:51:59.616Z,2.70
2023-03-24T08:54:27.928Z,2.88
2023-03-24T08:56:55.451Z,3.03
2023-03-24T08:59:23.124Z,2.92
2023-03-24T09:01:50.607Z,3.50
2023-03-24T09:04:18.662Z,2.47
2023-03-24T09:06:46.131Z,2.65
2023-03-24T09:09:13.746Z,2.42
2023-03-24T09:11:41.610Z,2.75
2023-03-24T09:14:09.254Z,2.70
2023-03-24T09:16:36.641Z,2.30
2023-03-24T09:19:05.221Z,2.92
2023-03-24T09:21:32.295Z,2.75
2023-03-24T09:24:00.026Z,2.63
2023-03-24T09:26:27.079Z,2.78
2023-03-24T09:28:54.737Z,3.08
2023-03-24T09:31:22.102Z,2.53
2023-03-24T09:33:50.024Z,3.00
2023-03-24T09:36:17.047Z,2.78
2023-03-24T09:38:45.040Z,3.00
2023-03-24T09:41:19.100Z,3.00
2023-03-24T09:43:52.989Z,3.50
2023-03-24T09:46:37.810Z,2.65
2023-03-24T09:49:06.007Z,2.75
2023-03-24T09:51:40.006Z,3.15
2023-03-24T09:54:10.732Z,2.58
2023-03-24T09:56:39.191Z,3.10
2023-03-24T09:59:19.318Z,3.08
2023-03-24T10:01:47.203Z,3.83
2023-03-24T10:04:17.049Z,3.05
2023-03-24T10:06:44.705Z,3.05
2023-03-24T10:09:19.799Z,3.00
2023-03-24T10:11:56.310Z,3.38
2023-03-24T10:14:34.131Z,3.33
2023-03-24T10:17:06.693Z,2.00
2023-03-24T10:19:40.166Z,2.38
2023-03-24T10:22:14.849Z,2.78
2023-03-24T10:24:45.723Z,2.30
2023-03-24T10:27:18.612Z,2.22
2023-03-24T10:29:48.248Z,2.42
2023-03-24T10:32:24.386Z,2.75
2023-03-24T10:34:55.525Z,2.55
2023-03-24T10:37:22.991Z,2.60
2023-03-24T10:39:51.966Z,2.40
2023-03-24T10:42:22.168Z,1.92
2023-03-24T10:44:51.258Z,2.88
2023-03-24T10:47:30.742Z,2.35
2023-03-24T10:50:13.006Z,2.17
2023-03-24T10:52:48.856Z,1.92
2023-03-24T10:55:23.325Z,2.20
2023-03-24T10:57:57.691Z,2.38
2023-03-24T11:00:31.941Z,2.05
2023-03-24T11:03:01.141Z,2.20
2023-03-24T11:05:35.037Z,2.30
2023-03-24T11:08:15.197Z,1.85
2023-03-24T11:10:42.815Z,2.30
2023-03-24T11:13:28.767Z,2.08
2023-03-24T11:16:24.903Z,1.98
2023-03-24T11:19:02.864Z,1.60
2023-03-24T11:21:31.965Z,2.05
2023-03-24T11:24:04.200Z,1.88
2023-03-24T11:26:32.130Z,2.25
2023-03-24T11:29:01.422Z,2.05
2023-03-24T11:31:38.265Z,1.52
2023-03-24T11:34:24.357Z,1.65
2023-03-24T11:36:55.248Z,1.60
2023-03-24T11:39:26.547Z,1.90
2023-03-24T11:42:01.796Z,1.98
2023-03-24T11:44:51.785Z,1.30
2023-03-24T11:47:24.212Z,1.38
2023-03-24T11:50:10.010Z,1.23
2023-03-24T11:52:39.787Z,2.00
2023-03-24T11:55:15.873Z,1.95
2023-03-24T11:57:43.488Z,1.67
2023-03-24T12:00:18.416Z,1.67
2023-03-24T12:02:56.454Z,1.90
2023-03-24T12:05:49.645Z,1.33
2023-03-24T12:08:24.417Z,1.50
2023-03-24T12:11:10.494Z,1.18
2023-03-24T12:13:41.799Z,1.48
2023-03-24T12:16:27.875Z,1.45
2023-03-24T12:19:22.782Z,1.25
2023-03-24T12:21:53.033Z,1.20
2023-03-24T12:24:23.920Z,1.50
2023-03-24T12:26:53.468Z,1.30
2023-03-24T12:29:35.264Z,1.50
2023-03-24T12:32:21.622Z,1.30
2023-03-24T12:34:52.865Z,1.52
2023-03-24T12:37:25.966Z,1.40
2023-03-24T12:39:56.350Z,1.15
2023-03-24T12:42:24.526Z,1.20
2023-03-24T12:44:57.935Z,1.30
2023-03-24T12:47:25.388Z,1.20
2023-03-24T12:50:02.607Z,1.30
2023-03-24T12:52:42.971Z,1.08
2023-03-24T12:55:25.499Z,1.20
2023-03-24T12:57:57.314Z,0.93
2023-03-24T13:00:29.806Z,0.73
2023-03-24T13:02:59.386Z,1.30
2023-03-24T13:05:36.195Z,1.20
2023-03-24T13:08:05.745Z,0.85
2023-03-24T13:10:40.494Z,1.25
2023-03-24T13:13:24.595Z,1.42
2023-03-24T13:15:52.375Z,1.10
2023-03-24T13:18:31.762Z,1.13
2023-03-24T13:21:13.768Z,0.70
2023-03-24T13:23:50.320Z,0.80
2023-03-24T13:26:27.204Z,1.08
2023-03-24T13:29:03.641Z,0.88
2023-03-24T13:31:35.737Z,1.20
2023-03-24T13:34:05.135Z,1.42
2023-03-24T13:36:47.838Z,1.10
2023-03-24T13:39:17.043Z,1.23
2023-03-24T13:41:49.124Z,1.58
2023-03-24T13:44:21.556Z,1.33
2023-03-24T13:47:08.326Z,1.13
2023-03-24T13:49:35.738Z,1.33
2023-03-24T13:52:04.774Z,1.30
2023-03-24T13:54:32.229Z,1.30
2023-03-24T13:57:18.728Z,1.25
2023-03-24T14:00:12.865Z,1.10
2023-03-24T14:02:59.978Z,1.73
2023-03-24T14:05:27.373Z,1.30
2023-03-24T14:08:13.184Z,1.48
2023-03-24T14:10:40.786Z,1.50
2023-03-24T14:13:20.464Z,1.50
2023-03-24T14:15:48.172Z,1.52
2023-03-24T14:18:21.659Z,1.42
2023-03-24T14:20:57.631Z,1.90
2023-03-24T14:23:39.567Z,1.42
2023-03-24T14:26:09.268Z,1.28
2023-03-24T14:28:47.974Z,1.85
2023-03-24T14:31:18.513Z,2.10
2023-03-24T14:34:02.072Z,1.90
2023-03-24T14:39:06.733Z,1.92
2023-03-24T14:41:39.276Z,2.03
2023-03-24T14:44:07.067Z,2.72
2023-03-24T14:46:34.453Z,2.28
2023-03-24T14:49:20.787Z,1.92
2023-03-24T14:52:10.741Z,2.80
2023-03-24T14:54:42.043Z,2.45
2023-03-24T14:57:10.043Z,2.50
2023-03-24T14:59:38.163Z,2.55
2023-03-24T15:02:48.080Z,3.03
2023-03-24T15:05:16.461Z,3.42
2023-03-24T15:07:45.045Z,3.20
2023-03-24T15:10:16.743Z,3.10
2023-03-24T15:12:48.085Z,2.58
2023-03-24T15:15:25.724Z,3.05
2023-03-24T15:17:53.524Z,2.67
2023-03-24T15:20:23.690Z,2.80
2023-03-24T15:22:54.574Z,2.70
2023-03-24T15:25:29.157Z,3.08
2023-03-24T15:27:57.801Z,2.78
2023-03-24T15:30:26.183Z,2.80
2023-03-24T15:32:54.960Z,2.97
2023-03-24T15:35:23.641Z,3.13
2023-03-24T15:38:00.602Z,2.85
2023-03-24T15:40:29.636Z,2.80
2023-03-24T15:42:58.929Z,2.67
2023-03-24T15:45:28.687Z,2.75
2023-03-24T15:47:57.645Z,3.28
2023-03-24T15:50:35.712Z,2.80
2023-03-24T15:53:05.420Z,2.95
2023-03-24T15:55:37.425Z,2.75
2023-03-24T16:01:14.249Z,3.40
2023-03-24T16:03:43.095Z,2.90
2023-03-24T16:06:16.276Z,2.97
2023-03-24T16:08:44.256Z,3.63
2023-03-24T16:11:13.677Z,3.22
2023-03-24T16:13:42.843Z,4.38
2023-03-24T16:16:17.052Z,3.03
2023-03-24T16:18:46.282Z,3.40
2023-03-24T16:21:15.572Z,3.17
2023-03-24T16:23:43.687Z,3.80
2023-03-24T16:26:14.914Z,3.38
2023-03-24T16:28:42.468Z,3.72
2023-03-24T16:31:17.981Z,3.80
2023-03-24T16:33:46.756Z,3.58
2023-03-24T16:36:15.285Z,4.07
2023-03-24T16:38:42.718Z,4.38
2023-03-24T16:41:11.564Z,4.07
2023-03-24T16:49:10.630Z,3.05
2023-03-24T16:51:38.317Z,3.75
2023-03-24T16:54:05.753Z,4.25
2023-03-24T16:56:33.445Z,4.15
2023-03-24T16:59:00.870Z,3.58
2023-03-24T17:01:29.324Z,3.60
2023-03-24T17:04:01.118Z,3.95
2023-03-24T17:06:30.690Z,3.40
2023-03-24T17:08:58.361Z,4.30
2023-03-24T17:11:29.088Z,4.55
2023-03-24T17:14:04.700Z,4.88
2023-03-24T17:16:36.381Z,4.07
2023-03-24T17:19:19.036Z,4.78
2023-03-24T17:22:02.580Z,4.35
2023-03-24T17:24:30.688Z,4.13
2023-03-24T17:26:58.771Z,4.40
2023-03-24T17:29:26.132Z,3.92
2023-03-24T17:31:54.642Z,4.35
2023-03-24T17:34:22.540Z,4.43
2023-03-24T17:36:51.289Z,4.68
2023-03-24T17:39:19.843Z,4.80
2023-03-24T17:41:47.523Z,5.85
2023-03-24T17:44:15.487Z,5.03
2023-03-24T17:46:43.171Z,5.45
2023-03-24T17:49:10.906Z,4.95
2023-03-24T17:51:38.534Z,5.40
2023-03-24T17:54:06.184Z,6.63
2023-03-24T17:56:34.063Z,6.38
2023-03-24T17:59:03.417Z,7.35
2023-03-24T18:01:35.148Z,6.78
2023-03-24T18:04:02.908Z,5.30
2023-03-24T18:06:30.847Z,5.80
2023-03-24T18:08:58.055Z,6.10
2023-03-24T18:11:26.514Z,6.32
2023-03-24T18:13:53.987Z,8.05
2023-03-24T18:16:22.469Z,5.55
2023-03-24T18:18:50.662Z,4.75
2023-03-24T18:21:19.337Z,2.50
2023-03-24T18:23:47.230Z,2.00
2023-03-24T18:26:16.486Z,3.78
2023-03-24T18:28:45.993Z,3.20
2023-03-24T18:31:15.814Z,3.28
2023-03-24T18:33:46.032Z,1.17
2023-03-24T18:36:16.615Z,1.90
2023-03-24T18:38:44.522Z,1.33
2023-03-24T18:41:16.820Z,2.03
2023-03-24T18:43:47.589Z,2.95
2023-03-24T18:46:16.212Z,2.10
2023-03-24T18:48:44.241Z,1.90
2023-03-24T18:51:12.162Z,3.25
2023-03-24T18:53:39.970Z,2.60
2023-03-24T18:56:08.743Z,0.80
2023-03-24T18:58:38.148Z,0.90
2023-03-24T19:01:09.746Z,1.30
2023-03-24T19:03:39.078Z,1.17
2023-03-24T19:06:08.000Z,2.58
2023-03-24T19:08:37.875Z,5.72
2023-03-24T19:11:06.556Z,15.80
2023-03-24T19:13:34.234Z,19.55
2023-03-24T19:16:01.918Z,5.38
2023-03-24T19:18:29.318Z,4.25
2023-03-24T19:20:57.833Z,2.72
2023-03-24T19:23:26.217Z,3.33
2023-03-24T19:25:55.081Z,1.85
2023-03-24T19:28:23.171Z,2.03
2023-03-24T19:30:51.575Z,1.75
2023-03-24T19:33:19.002Z,2.33
2023-03-24T19:35:50.778Z,2.00
2023-03-24T19:38:19.158Z,1.67
2023-03-24T19:40:53.243Z,1.88
2023-03-24T19:43:21.712Z,2.92
2023-03-24T19:45:50.216Z,4.40
2023-03-24T19:48:17.833Z,2.35
2023-03-24T19:50:46.150Z,2.15
2023-03-24T19:53:13.633Z,1.70
2023-03-24T19:55:41.574Z,1.83
2023-03-24T19:58:08.955Z,1.52
2023-03-24T20:00:37.025Z,2.13
2023-03-24T20:03:04.502Z,2.20
2023-03-24T20:05:32.320Z,2.30
2023-03-24T20:08:00.650Z,3.83
2023-03-24T20:10:28.466Z,4.32
2023-03-24T20:12:55.976Z,6.63
2023-03-24T20:15:24.058Z,4.47
2023-03-24T20:17:52.562Z,3.75
2023-03-24T20:20:20.531Z,3.20
2023-03-24T20:22:48.958Z,3.88
2023-03-24T20:25:17.995Z,3.78
2023-03-24T20:27:46.893Z,6.22
2023-03-24T20:30:18.633Z,5.43
2023-03-24T20:32:46.000Z,5.38
2023-03-24T20:35:14.128Z,4.80
2023-03-24T20:37:41.963Z,5.75
2023-03-24T20:40:09.971Z,4.95
2023-03-24T20:42:38.032Z,5.13
2023-03-24T20:45:06.911Z,4.03
2023-03-24T20:47:34.478Z,4.47
2023-03-24T20:50:02.570Z,5.65
2023-03-24T20:52:30.108Z,6.50
2023-03-24T20:54:58.024Z,10.02
2023-03-24T20:57:26.352Z,13.27
2023-03-24T20:59:54.058Z,6.82
2023-03-24T21:02:21.563Z,6.05
2023-03-24T21:04:49.214Z,6.15
2023-03-24T21:07:16.674Z,5.90
2023-03-24T21:09:44.385Z,5.05
2023-03-24T21:12:11.934Z,5.28
2023-03-24T21:14:41.396Z,5.70
2023-03-24T21:17:08.936Z,5.47
2023-03-24T21:19:37.303Z,5.20
2023-03-24T21:22:04.793Z,4.75
2023-03-24T21:24:32.758Z,5.55
2023-03-24T21:27:00.951Z,5.05
2023-03-24T21:29:28.629Z,6.90
2023-03-24T21:31:55.988Z,7.03
2023-03-24T21:34:23.936Z,6.07
2023-03-24T21:36:53.625Z,6.93
2023-03-24T21:39:21.842Z,5.68
2023-03-24T21:41:49.458Z,5.90
2023-03-24T21:44:19.042Z,8.32
2023-03-24T21:46:47.696Z,6.20
2023-03-24T21:49:18.871Z,5.75
2023-03-24T21:51:46.843Z,5.20
2023-03-24T21:54:15.192Z,5.25
2023-03-24T21:56:42.792Z,5.50
2023-03-24T21:59:11.420Z,6.20
2023-03-24T22:01:38.960Z,6.13
2023-03-24T22:04:08.885Z,5.75
2023-03-24T22:06:39.590Z,5.32
2023-03-24T22:09:08.251Z,5.30
2023-03-24T22:11:36.238Z,5.00
2023-03-24T22:14:04.423Z,4.93
2023-03-24T22:16:33.043Z,5.72
2023-03-24T22:19:01.687Z,4.85
2023-03-24T22:21:29.239Z,4.97
2023-03-24T22:23:56.962Z,4.53
2023-03-24T22:26:24.374Z,4.97
2023-03-24T22:28:52.644Z,4.55
2023-03-24T22:31:23.081Z,4.70
2023-03-24T22:33:50.870Z,5.15
2023-03-24T22:36:18.497Z,5.50
2023-03-24T22:38:46.312Z,5.90
2023-03-24T22:41:15.070Z,5.75
2023-03-24T22:43:43.134Z,6.00
2023-03-24T22:46:11.222Z,6.07
2023-03-24T22:48:39.542Z,5.90
2023-03-24T22:51:07.118Z,6.40
2023-03-24T22:53:34.864Z,6.47
2023-03-24T22:56:02.454Z,5.90
2023-03-24T22:58:30.107Z,4.88
2023-03-24T23:00:57.625Z,5.60
2023-03-24T23:03:25.581Z,5.80
2023-03-24T23:05:53.175Z,6.60
2023-03-24T23:08:21.481Z,5.32
2023-03-24T23:10:48.855Z,6.05
2023-03-24T23:13:20.055Z,6.50
2023-03-24T23:15:48.625Z,6.53
2023-03-24T23:18:17.216Z,6.45
2023-03-24T23:20:45.343Z,6.38
2023-03-24T23:23:13.484Z,6.45
2023-03-24T23:25:45.527Z,6.43
2023-03-24T23:28:14.140Z,6.07
2023-03-24T23:30:42.146Z,6.93
2023-03-24T23:33:14.694Z,6.07
2023-03-24T23:35:42.507Z,6.75
2023-03-24T23:38:10.544Z,5.72
2023-03-24T23:40:38.116Z,7.00
2023-03-24T23:43:06.030Z,6.07
2023-03-24T23:45:33.371Z,6.82
2023-03-24T23:48:01.347Z,6.18
2023-03-24T23:50:29.385Z,6.50
2023-03-24T23:52:57.128Z,6.13
2023-03-24T23:55:25.995Z,7.88
2023-03-24T23:57:54.823Z,6.97
